Buoy 52514

sailwx.info

Track history (hours):
 
Tides and Currents Weather Stations Pressure Air Temp Water Temp Dewpoint Dewpoint Depression Visibility Wind Speed Wind Dir Waves Ship Positions

Drifting buoy 52514

Last reported at 2016-Oct-01 18:00 UTC. Time now 2016-Oct-01 20:44 UTC.
Position N 32°10' E 139°17'.

Date/timePositionNaut miles runAvg speedWind from/ knotsBaromVisibWave heightAir tempDewpointWater temp
2016-Oct-01 18:00N 32°10' E 139°17'4 0.9
2016-Oct-01 13:00N 32°10' E 139°12'0 0.2
2016-Oct-01 12:00N 32°11' E 139°12'0 0.0
2016-Oct-01 11:00N 32°11' E 139°12'1 0.9
2016-Oct-01 10:00N 32°11' E 139°11'1 0.4
2016-Oct-01 08:00N 32°12' E 139°10'0 0.0
2016-Oct-01 07:00N 32°12' E 139°10'3 1.4
2016-Oct-01 05:00N 32°14' E 139°10'1 1.0
2016-Oct-01 04:00N 32°15' E 139°10'0 0.0
2016-Oct-01 03:00N 32°15' E 139°10'6 2.1
2016-Oct-01 00:00N 32°18' E 139°03'2 2.3
2016-Sep-30 23:00N 32°19' E 139°01'0 0.1
2016-Sep-30 22:00N 32°19' E 139°01'2 2.4
2016-Sep-30 21:00N 32°20' E 138°59'2 1.5
2016-Sep-30 20:00N 32°21' E 138°57'0 0.0
2016-Sep-30 19:00N 32°21' E 138°57'2 2.3
2016-Sep-30 18:00N 32°21' E 138°54'7 3.6
2016-Sep-30 16:00N 32°21' E 138°46'1 0.3
2016-Sep-30 13:00N 32°22' E 138°45'1 0.7
2016-Sep-30 11:00N 32°22' E 138°44'1 1.1
2016-Sep-30 10:00N 32°23' E 138°42'0 0.4
2016-Sep-30 09:00N 32°23' E 138°42'1 0.5
2016-Sep-30 08:00N 32°23' E 138°42'2 2.0
2016-Sep-30 07:00N 32°24' E 138°40'0 0.1
2016-Sep-30 05:00N 32°25' E 138°40'4 3.9
2016-Sep-30 04:00N 32°27' E 138°36'0 0.0
2016-Sep-30 03:00N 32°27' E 138°36'0 0.0
2016-Sep-30 02:00N 32°27' E 138°36'1 0.6
2016-Sep-30 01:00N 32°27' E 138°36'1 1.3
2016-Sep-30 00:00N 32°28' E 138°35'3 2.7
2016-Sep-29 23:00N 32°29' E 138°32'2 1.5
2016-Sep-29 22:00N 32°30' E 138°30'1 1.0
2016-Sep-29 21:00N 32°31' E 138°29'1 1.4
2016-Sep-29 20:00N 32°31' E 138°28'2 2.1
2016-Sep-29 19:00N 32°32' E 138°26'0 0.0
2016-Sep-29 18:00N 32°32' E 138°26'3 1.4
2016-Sep-29 16:00N 32°34' E 138°23'8 2.1
2016-Sep-29 12:00N 32°38' E 138°14'1 1.0
2016-Sep-29 11:00N 32°39' E 138°13'4 4.3
2016-Sep-29 10:00N 32°41' E 138°09'0 0.1
2016-Sep-29 09:00N 32°41' E 138°09'1 1.1
2016-Sep-29 08:00N 32°42' E 138°09'6 5.6
2016-Sep-29 07:00N 32°45' E 138°03'1 0.9
2016-Sep-29 06:00N 32°45' E 138°02'3 3.5
2016-Sep-29 05:00N 32°47' E 137°59'0 0.4
2016-Sep-29 04:00N 32°47' E 137°59'7 2.4
2016-Sep-29 01:00N 32°50' E 137°51'7 3.7
2016-Sep-28 23:00N 32°53' E 137°43'3 3.3
2016-Sep-28 22:00N 32°54' E 137°39'2 1.6
2016-Sep-28 21:00N 32°54' E 137°38'6 5.9
2016-Sep-28 20:00N 32°55' E 137°31'0 0.0
2016-Sep-28 19:00N 32°55' E 137°31'0 0.0
2016-Sep-28 18:00N 32°55' E 137°31'4 2.2
2016-Sep-28 16:00N 32°56' E 137°25'10 3.4
2016-Sep-28 13:00N 32°56' E 137°13'0 0.2
2016-Sep-28 12:00N 32°56' E 137°14'4 1.9
2016-Sep-28 10:00N 32°57' E 137°09'3 3.2
2016-Sep-28 09:00N 32°57' E 137°05'2 2.2
2016-Sep-28 08:00N 32°57' E 137°03'3 1.6
2016-Sep-28 06:00N 32°58' E 136°59'10 5.2
2016-Sep-28 04:00N 32°60' E 136°47'9 3.1
2016-Sep-28 01:00N 32°59' E 136°36'0 0.0
2016-Sep-27 23:00N 32°59' E 136°36'0 0.0
2016-Sep-27 22:00N 32°59' E 136°36'3 2.7
2016-Sep-27 21:00N 32°59' E 136°33'4 3.6
2016-Sep-27 20:00N 32°59' E 136°28'2 1.6
2016-Sep-27 19:00N 32°59' E 136°27'3 3.2
2016-Sep-27 18:00N 32°58' E 136°23'0 0.0
2016-Sep-27 17:00N 32°58' E 136°23'9 1.9
2016-Sep-27 12:00N 32°53' E 136°13'3 1.5
2016-Sep-27 10:00N 32°52' E 136°10'0 0.4
2016-Sep-27 09:00N 32°52' E 136°10'1 0.8
2016-Sep-27 08:00N 32°51' E 136°09'2 1.9
2016-Sep-27 07:00N 32°52' E 136°07'1 1.5
2016-Sep-27 06:00N 32°52' E 136°05'6 2.9
2016-Sep-27 04:00N 32°53' E 135°58'0 0.0
2016-Sep-27 01:00N 32°53' E 135°58'0 0.0
2016-Sep-27 00:00N 32°53' E 135°58'5 4.9
2016-Sep-26 23:00N 32°52' E 135°53'0 0.0
2016-Sep-26 22:00N 32°52' E 135°53'1 0.8
2016-Sep-26 21:00N 32°52' E 135°52'1 1.5
2016-Sep-26 20:00N 32°52' E 135°50'2 1.7
2016-Sep-26 19:00N 32°51' E 135°48'2 2.3
2016-Sep-26 18:00N 32°50' E 135°46'0 0.0
2016-Sep-26 17:00N 32°50' E 135°46'6 1.5
2016-Sep-26 13:00N 32°46' E 135°41'0 0.0
2016-Sep-26 12:00N 32°46' E 135°41'1 1.2
2016-Sep-26 11:00N 32°45' E 135°41'0 0.5
2016-Sep-26 10:00N 32°44' E 135°41'0 0.0
2016-Sep-26 09:00N 32°44' E 135°41'0 0.2
2016-Sep-26 08:00N 32°44' E 135°41'0 0.0
2016-Sep-26 07:00N 32°44' E 135°41'1 1.0
2016-Sep-26 06:00N 32°45' E 135°40'0 0.0
2016-Sep-26 05:00N 32°45' E 135°40'2 1.8
2016-Sep-26 04:00N 32°45' E 135°42'5 1.7
2016-Sep-26 01:00N 32°45' E 135°36'6 3.1
2016-Sep-25 23:00N 32°44' E 135°28'0 0.0
2016-Sep-25 22:00N 32°44' E 135°28'0 0.0
2016-Sep-25 21:00N 32°44' E 135°28'0 0.0
2016-Sep-25 20:00N 32°44' E 135°28'4 1.5
2016-Sep-25 17:00N 32°41' E 135°24'6 1.3
2016-Sep-25 12:00N 32°36' E 135°20'2 1.1
2016-Sep-25 10:00N 32°34' E 135°21'0 0.3
2016-Sep-25 09:00N 32°34' E 135°20'0 0.3
2016-Sep-25 08:00N 32°34' E 135°21'0 0.5
2016-Sep-25 07:00N 32°34' E 135°20'0 0.0
2016-Sep-25 06:00N 32°34' E 135°20'0 0.2
2016-Sep-25 05:00N 32°34' E 135°20'0 0.0
2016-Sep-25 04:00N 32°34' E 135°20'3 0.9
2016-Sep-25 01:00N 32°34' E 135°17'7 1.7
2016-Sep-24 21:00N 32°33' E 135°09'7 3.3
2016-Sep-24 19:00N 32°27' E 135°05'0 0.0
2016-Sep-24 17:00N 32°27' E 135°05'11 1.9
2016-Sep-24 11:00N 32°16' E 135°07'2 1.0
2016-Sep-24 09:00N 32°16' E 135°09'1 1.1
2016-Sep-24 08:00N 32°16' E 135°10'1 1.1
2016-Sep-24 07:00N 32°16' E 135°09'2 1.2
2016-Sep-24 05:00N 32°18' E 135°11'6 1.9
2016-Sep-24 02:00N 32°18' E 135°04'0 0.0
2016-Sep-24 01:00N 32°18' E 135°04'3 3.5
2016-Sep-24 00:00N 32°17' E 134°60'5 4.7
2016-Sep-23 23:00N 32°15' E 134°55'0 0.0
2016-Sep-23 22:00N 32°15' E 134°55'2 1.9
2016-Sep-23 21:00N 32°13' E 134°54'3 3.4
2016-Sep-23 20:00N 32°11' E 134°51'4 3.9
2016-Sep-23 19:00N 32°07' E 134°50'0 0.1
2016-Sep-23 18:00N 32°07' E 134°50'0 0.0
2016-Sep-23 17:00N 32°07' E 134°50'8 2.1
2016-Sep-23 13:00N 31°59' E 134°51'0 0.0
2016-Sep-23 12:00N 31°59' E 134°51'2 1.6
2016-Sep-23 11:00N 31°58' E 134°53'0 0.4
2016-Sep-23 10:00N 31°58' E 134°53'1 0.9
2016-Sep-23 09:00N 31°57' E 134°54'0 0.1
2016-Sep-23 08:00N 31°57' E 134°54'5 1.8
2016-Sep-23 05:00N 31°59' E 134°48'0 0.0
2016-Sep-23 02:00N 31°58' E 134°48'2 2.0
2016-Sep-23 01:00N 31°58' E 134°45'2 1.5
2016-Sep-23 00:00N 31°58' E 134°44'5 4.6
2016-Sep-22 23:00N 31°55' E 134°39'1 0.6
2016-Sep-22 22:00N 31°55' E 134°39'4 2.2
2016-Sep-22 20:00N 31°51' E 134°36'4 2.1
2016-Sep-22 18:00N 31°47' E 134°36'0 0.0
2016-Sep-22 17:00N 31°47' E 134°36'8 1.7
2016-Sep-22 12:00N 31°39' E 134°39'2 1.6
2016-Sep-22 11:00N 31°40' E 134°41'0 0.0
2016-Sep-22 10:00N 31°40' E 134°41'0 0.2
2016-Sep-22 09:00N 31°40' E 134°40'0 0.4
2016-Sep-22 08:00N 31°41' E 134°40'0 0.0
2016-Sep-22 07:00N 31°41' E 134°40'2 1.0
2016-Sep-22 05:00N 31°41' E 134°38'7 7.4
2016-Sep-22 04:00N 31°40' E 134°29'0 0.0
2016-Sep-22 03:00N 31°40' E 134°29'0 0.0
2016-Sep-22 02:00N 31°40' E 134°29'1 1.4
2016-Sep-22 01:00N 31°38' E 134°29'2 1.6
2016-Sep-22 00:00N 31°37' E 134°28'3 3.0
2016-Sep-21 23:00N 31°35' E 134°25'0 0.0
2016-Sep-21 22:00N 31°35' E 134°25'3 1.6
2016-Sep-21 20:00N 31°32' E 134°24'5 2.5
2016-Sep-21 18:00N 31°27' E 134°22'  
Track history (hours):
 
Tides and Currents Weather Stations Pressure Air Temp Water Temp Dewpoint Dewpoint Depression Visibility Wind Speed Wind Dir Waves Ship Positions

Drifting buoy 52514

Last reported at 2016-Oct-01 18:00 UTC. Time now 2016-Oct-01 20:44 UTC.
Position N 32°10' E 139°17'.

Date/timePositionNaut miles runAvg speedWind from/ knotsBaromVisibWave heightAir tempDewpointWater temp
2016-Oct-01 18:00N 32°10' E 139°17'4 0.9
2016-Oct-01 13:00N 32°10' E 139°12'0 0.2
2016-Oct-01 12:00N 32°11' E 139°12'0 0.0
2016-Oct-01 11:00N 32°11' E 139°12'1 0.9
2016-Oct-01 10:00N 32°11' E 139°11'1 0.4
2016-Oct-01 08:00N 32°12' E 139°10'0 0.0
2016-Oct-01 07:00N 32°12' E 139°10'3 1.4
2016-Oct-01 05:00N 32°14' E 139°10'1 1.0
2016-Oct-01 04:00N 32°15' E 139°10'0 0.0
2016-Oct-01 03:00N 32°15' E 139°10'6 2.1
2016-Oct-01 00:00N 32°18' E 139°03'2 2.3
2016-Sep-30 23:00N 32°19' E 139°01'0 0.1
2016-Sep-30 22:00N 32°19' E 139°01'2 2.4
2016-Sep-30 21:00N 32°20' E 138°59'2 1.5
2016-Sep-30 20:00N 32°21' E 138°57'0 0.0
2016-Sep-30 19:00N 32°21' E 138°57'2 2.3
2016-Sep-30 18:00N 32°21' E 138°54'7 3.6
2016-Sep-30 16:00N 32°21' E 138°46'1 0.3
2016-Sep-30 13:00N 32°22' E 138°45'1 0.7
2016-Sep-30 11:00N 32°22' E 138°44'1 1.1
2016-Sep-30 10:00N 32°23' E 138°42'0 0.4
2016-Sep-30 09:00N 32°23' E 138°42'1 0.5
2016-Sep-30 08:00N 32°23' E 138°42'2 2.0
2016-Sep-30 07:00N 32°24' E 138°40'0 0.1
2016-Sep-30 05:00N 32°25' E 138°40'4 3.9
2016-Sep-30 04:00N 32°27' E 138°36'0 0.0
2016-Sep-30 03:00N 32°27' E 138°36'0 0.0
2016-Sep-30 02:00N 32°27' E 138°36'1 0.6
2016-Sep-30 01:00N 32°27' E 138°36'1 1.3
2016-Sep-30 00:00N 32°28' E 138°35'3 2.7
2016-Sep-29 23:00N 32°29' E 138°32'2 1.5
2016-Sep-29 22:00N 32°30' E 138°30'1 1.0
2016-Sep-29 21:00N 32°31' E 138°29'1 1.4
2016-Sep-29 20:00N 32°31' E 138°28'2 2.1
2016-Sep-29 19:00N 32°32' E 138°26'0 0.0
2016-Sep-29 18:00N 32°32' E 138°26'3 1.4
2016-Sep-29 16:00N 32°34' E 138°23'8 2.1
2016-Sep-29 12:00N 32°38' E 138°14'1 1.0
2016-Sep-29 11:00N 32°39' E 138°13'4 4.3
2016-Sep-29 10:00N 32°41' E 138°09'0 0.1
2016-Sep-29 09:00N 32°41' E 138°09'1 1.1
2016-Sep-29 08:00N 32°42' E 138°09'6 5.6
2016-Sep-29 07:00N 32°45' E 138°03'1 0.9
2016-Sep-29 06:00N 32°45' E 138°02'3 3.5
2016-Sep-29 05:00N 32°47' E 137°59'0 0.4
2016-Sep-29 04:00N 32°47' E 137°59'7 2.4
2016-Sep-29 01:00N 32°50' E 137°51'7 3.7
2016-Sep-28 23:00N 32°53' E 137°43'3 3.3
2016-Sep-28 22:00N 32°54' E 137°39'2 1.6
2016-Sep-28 21:00N 32°54' E 137°38'6 5.9
2016-Sep-28 20:00N 32°55' E 137°31'0 0.0
2016-Sep-28 19:00N 32°55' E 137°31'0 0.0
2016-Sep-28 18:00N 32°55' E 137°31'4 2.2
2016-Sep-28 16:00N 32°56' E 137°25'10 3.4
2016-Sep-28 13:00N 32°56' E 137°13'0 0.2
2016-Sep-28 12:00N 32°56' E 137°14'4 1.9
2016-Sep-28 10:00N 32°57' E 137°09'3 3.2
2016-Sep-28 09:00N 32°57' E 137°05'2 2.2
2016-Sep-28 08:00N 32°57' E 137°03'3 1.6
2016-Sep-28 06:00N 32°58' E 136°59'10 5.2
2016-Sep-28 04:00N 32°60' E 136°47'9 3.1
2016-Sep-28 01:00N 32°59' E 136°36'0 0.0
2016-Sep-27 23:00N 32°59' E 136°36'0 0.0
2016-Sep-27 22:00N 32°59' E 136°36'3 2.7
2016-Sep-27 21:00N 32°59' E 136°33'4 3.6
2016-Sep-27 20:00N 32°59' E 136°28'2 1.6
2016-Sep-27 19:00N 32°59' E 136°27'3 3.2
2016-Sep-27 18:00N 32°58' E 136°23'0 0.0
2016-Sep-27 17:00N 32°58' E 136°23'9 1.9
2016-Sep-27 12:00N 32°53' E 136°13'3 1.5
2016-Sep-27 10:00N 32°52' E 136°10'0 0.4
2016-Sep-27 09:00N 32°52' E 136°10'1 0.8
2016-Sep-27 08:00N 32°51' E 136°09'2 1.9
2016-Sep-27 07:00N 32°52' E 136°07'1 1.5
2016-Sep-27 06:00N 32°52' E 136°05'6 2.9
2016-Sep-27 04:00N 32°53' E 135°58'0 0.0
2016-Sep-27 01:00N 32°53' E 135°58'0 0.0
2016-Sep-27 00:00N 32°53' E 135°58'5 4.9
2016-Sep-26 23:00N 32°52' E 135°53'0 0.0
2016-Sep-26 22:00N 32°52' E 135°53'1 0.8
2016-Sep-26 21:00N 32°52' E 135°52'1 1.5
2016-Sep-26 20:00N 32°52' E 135°50'2 1.7
2016-Sep-26 19:00N 32°51' E 135°48'2 2.3
2016-Sep-26 18:00N 32°50' E 135°46'0 0.0
2016-Sep-26 17:00N 32°50' E 135°46'6 1.5
2016-Sep-26 13:00N 32°46' E 135°41'0 0.0
2016-Sep-26 12:00N 32°46' E 135°41'1 1.2
2016-Sep-26 11:00N 32°45' E 135°41'0 0.5
2016-Sep-26 10:00N 32°44' E 135°41'0 0.0
2016-Sep-26 09:00N 32°44' E 135°41'0 0.2
2016-Sep-26 08:00N 32°44' E 135°41'0 0.0
2016-Sep-26 07:00N 32°44' E 135°41'1 1.0
2016-Sep-26 06:00N 32°45' E 135°40'0 0.0
2016-Sep-26 05:00N 32°45' E 135°40'2 1.8
2016-Sep-26 04:00N 32°45' E 135°42'5 1.7
2016-Sep-26 01:00N 32°45' E 135°36'6 3.1
2016-Sep-25 23:00N 32°44' E 135°28'0 0.0
2016-Sep-25 22:00N 32°44' E 135°28'0 0.0
2016-Sep-25 21:00N 32°44' E 135°28'0 0.0
2016-Sep-25 20:00N 32°44' E 135°28'4 1.5
2016-Sep-25 17:00N 32°41' E 135°24'6 1.3
2016-Sep-25 12:00N 32°36' E 135°20'2 1.1
2016-Sep-25 10:00N 32°34' E 135°21'0 0.3
2016-Sep-25 09:00N 32°34' E 135°20'0 0.3
2016-Sep-25 08:00N 32°34' E 135°21'0 0.5
2016-Sep-25 07:00N 32°34' E 135°20'0 0.0
2016-Sep-25 06:00N 32°34' E 135°20'0 0.2
2016-Sep-25 05:00N 32°34' E 135°20'0 0.0
2016-Sep-25 04:00N 32°34' E 135°20'3 0.9
2016-Sep-25 01:00N 32°34' E 135°17'7 1.7
2016-Sep-24 21:00N 32°33' E 135°09'7 3.3
2016-Sep-24 19:00N 32°27' E 135°05'0 0.0
2016-Sep-24 17:00N 32°27' E 135°05'11 1.9
2016-Sep-24 11:00N 32°16' E 135°07'2 1.0
2016-Sep-24 09:00N 32°16' E 135°09'1 1.1
2016-Sep-24 08:00N 32°16' E 135°10'1 1.1
2016-Sep-24 07:00N 32°16' E 135°09'2 1.2
2016-Sep-24 05:00N 32°18' E 135°11'6 1.9
2016-Sep-24 02:00N 32°18' E 135°04'0 0.0
2016-Sep-24 01:00N 32°18' E 135°04'3 3.5
2016-Sep-24 00:00N 32°17' E 134°60'5 4.7
2016-Sep-23 23:00N 32°15' E 134°55'0 0.0
2016-Sep-23 22:00N 32°15' E 134°55'2 1.9
2016-Sep-23 21:00N 32°13' E 134°54'3 3.4
2016-Sep-23 20:00N 32°11' E 134°51'4 3.9
2016-Sep-23 19:00N 32°07' E 134°50'0 0.1
2016-Sep-23 18:00N 32°07' E 134°50'0 0.0
2016-Sep-23 17:00N 32°07' E 134°50'8 2.1
2016-Sep-23 13:00N 31°59' E 134°51'0 0.0
2016-Sep-23 12:00N 31°59' E 134°51'2 1.6
2016-Sep-23 11:00N 31°58' E 134°53'0 0.4
2016-Sep-23 10:00N 31°58' E 134°53'1 0.9
2016-Sep-23 09:00N 31°57' E 134°54'0 0.1
2016-Sep-23 08:00N 31°57' E 134°54'5 1.8
2016-Sep-23 05:00N 31°59' E 134°48'0 0.0
2016-Sep-23 02:00N 31°58' E 134°48'2 2.0
2016-Sep-23 01:00N 31°58' E 134°45'2 1.5
2016-Sep-23 00:00N 31°58' E 134°44'5 4.6
2016-Sep-22 23:00N 31°55' E 134°39'1 0.6
2016-Sep-22 22:00N 31°55' E 134°39'4 2.2
2016-Sep-22 20:00N 31°51' E 134°36'4 2.1
2016-Sep-22 18:00N 31°47' E 134°36'0 0.0
2016-Sep-22 17:00N 31°47' E 134°36'8 1.7
2016-Sep-22 12:00N 31°39' E 134°39'2 1.6
2016-Sep-22 11:00N 31°40' E 134°41'0 0.0
2016-Sep-22 10:00N 31°40' E 134°41'0 0.2
2016-Sep-22 09:00N 31°40' E 134°40'0 0.4
2016-Sep-22 08:00N 31°41' E 134°40'0 0.0
2016-Sep-22 07:00N 31°41' E 134°40'2 1.0
2016-Sep-22 05:00N 31°41' E 134°38'7 7.4
2016-Sep-22 04:00N 31°40' E 134°29'0 0.0
2016-Sep-22 03:00N 31°40' E 134°29'0 0.0
2016-Sep-22 02:00N 31°40' E 134°29'1 1.4
2016-Sep-22 01:00N 31°38' E 134°29'2 1.6
2016-Sep-22 00:00N 31°37' E 134°28'3 3.0
2016-Sep-21 23:00N 31°35' E 134°25'0 0.0
2016-Sep-21 22:00N 31°35' E 134°25'3 1.6
2016-Sep-21 20:00N 31°32' E 134°24'5 2.5
2016-Sep-21 18:00N 31°27' E 134°22'  

Dump ship's entire track history